Fredericton International Airport

Airport
ICAO code: 
CYFC
Summary
ICAO Region: 
NAM
Territory: 
Location: 
Fredericton, New Brunswick,
Coordinates: 
Aerial View: 
45° 52' 11.753" N, 66° 31' 48.717" W
Airport BS: 
Bird Strike
Metar
Observation
CYFC 271039Z AUTO 31008KT 2 1/2SM -SN FEW006 OVC024 00/00 A2910 RMK VIS VRB 1 3/4-3 ICG INTMT SLP857
Station
Fredericton, N. B.
Date/Time
2021-11-27 10:39:00
Wind direction
310°
Wind speed
08 kts
Lowest cloud amount
few clouds
Temperature
0°C
Dew point
0°C
Humidity
100%
Weather condition
light snow

Description

International airport serving Fredericton, New Brunswick, Canada. Airport is in close proximity to the restricted areas at Canadian Forces Base Gagetown.

Climatology

Humid Continental climate (Köppen climate classification Dfb) - Variable weather patterns and a large seasonal temperature variance. Summers are often warm and humid with frequent thunderstorms and winters can be very cold with frequent snowfall and persistent snow cover.

Runways

Designator Length Width Surface Rops
15/33 1829 61 ASP Yes/Yes
9/27 2440 61 ASP Yes/Yes
Airport map: 
Aerial View: 

SKYbrary Partners:

Safety knowledge contributed by: